sensor_id;sensor_type;location;lat;lon;timestamp;P1;durP1;ratioP1;P2;durP2;ratioP2
18881;SDS011;9573;50.948;11.600;2023-05-15T00:00:28;23.43;;;9.67;;
18881;SDS011;9573;50.948;11.600;2023-05-15T00:02:56;21.97;;;9.03;;
18881;SDS011;9573;50.948;11.600;2023-05-15T00:05:23;21.47;;;9.13;;
18881;SDS011;9573;50.948;11.600;2023-05-15T00:07:50;22.93;;;9.13;;
18881;SDS011;9573;50.948;11.600;2023-05-15T00:10:17;22.30;;;9.20;;
18881;SDS011;9573;50.948;11.600;2023-05-15T00:12:44;22.27;;;9.30;;
18881;SDS011;9573;50.948;11.600;2023-05-15T00:15:12;20.83;;;8.63;;
18881;SDS011;9573;50.948;11.600;2023-05-15T00:17:40;24.33;;;9.80;;
18881;SDS011;9573;50.948;11.600;2023-05-15T00:20:07;20.73;;;8.97;;
18881;SDS011;9573;50.948;11.600;2023-05-15T00:22:35;21.90;;;9.07;;
18881;SDS011;9573;50.948;11.600;2023-05-15T00:25:03;22.17;;;9.00;;
18881;SDS011;9573;50.948;11.600;2023-05-15T00:27:31;23.37;;;9.57;;
18881;SDS011;9573;50.948;11.600;2023-05-15T00:29:58;22.47;;;9.20;;
18881;SDS011;9573;50.948;11.600;2023-05-15T00:32:25;24.77;;;9.87;;
18881;SDS011;9573;50.948;11.600;2023-05-15T00:34:53;24.37;;;9.80;;
18881;SDS011;9573;50.948;11.600;2023-05-15T00:37:20;22.90;;;9.83;;
18881;SDS011;9573;50.948;11.600;2023-05-15T00:39:49;23.87;;;9.90;;
18881;SDS011;9573;50.948;11.600;2023-05-15T00:42:16;22.27;;;9.53;;
18881;SDS011;9573;50.948;11.600;2023-05-15T00:44:44;23.13;;;9.60;;
18881;SDS011;9573;50.948;11.600;2023-05-15T00:47:12;25.63;;;9.43;;
18881;SDS011;9573;50.948;11.600;2023-05-15T00:49:41;24.83;;;10.30;;
18881;SDS011;9573;50.948;11.600;2023-05-15T00:52:10;21.50;;;9.43;;
18881;SDS011;9573;50.948;11.600;2023-05-15T00:54:37;23.97;;;9.50;;
18881;SDS011;9573;50.948;11.600;2023-05-15T00:57:05;22.10;;;9.17;;
18881;SDS011;9573;50.948;11.600;2023-05-15T00:59:34;23.93;;;9.67;;
18881;SDS011;9573;50.948;11.600;2023-05-15T01:02:04;23.00;;;8.70;;
18881;SDS011;9573;50.948;11.600;2023-05-15T01:04:31;23.57;;;9.97;;
18881;SDS011;9573;50.948;11.600;2023-05-15T01:06:58;23.73;;;9.87;;
18881;SDS011;9573;50.948;11.600;2023-05-15T01:09:27;22.87;;;9.17;;
18881;SDS011;9573;50.948;11.600;2023-05-15T01:11:56;26.13;;;9.83;;
18881;SDS011;9573;50.948;11.600;2023-05-15T01:14:26;26.67;;;10.37;;
18881;SDS011;9573;50.948;11.600;2023-05-15T01:16:53;27.27;;;10.17;;
18881;SDS011;9573;50.948;11.600;2023-05-15T01:19:20;25.50;;;10.43;;
18881;SDS011;9573;50.948;11.600;2023-05-15T01:21:56;25.17;;;10.40;;
18881;SDS011;9573;50.948;11.600;2023-05-15T01:25:19;29.40;;;11.50;;
18881;SDS011;9573;50.948;11.600;2023-05-15T01:28:29;27.50;;;11.27;;
18881;SDS011;9573;50.948;11.600;2023-05-15T01:30:58;27.97;;;11.60;;
18881;SDS011;9573;50.948;11.600;2023-05-15T01:33:42;36.53;;;19.70;;
18881;SDS011;9573;50.948;11.600;2023-05-15T01:36:13;36.37;;;20.87;;
18881;SDS011;9573;50.948;11.600;2023-05-15T01:38:46;36.40;;;19.50;;
18881;SDS011;9573;50.948;11.600;2023-05-15T01:41:20;31.87;;;15.00;;
18881;SDS011;9573;50.948;11.600;2023-05-15T01:43:58;30.17;;;13.77;;
18881;SDS011;9573;50.948;11.600;2023-05-15T01:46:30;31.97;;;13.67;;
18881;SDS011;9573;50.948;11.600;2023-05-15T01:49:00;29.47;;;12.10;;
18881;SDS011;9573;50.948;11.600;2023-05-15T01:51:28;30.70;;;13.50;;
18881;SDS011;9573;50.948;11.600;2023-05-15T01:53:57;31.80;;;14.63;;
18881;SDS011;9573;50.948;11.600;2023-05-15T01:56:25;29.17;;;12.90;;
18881;SDS011;9573;50.948;11.600;2023-05-15T01:58:54;29.23;;;12.50;;
18881;SDS011;9573;50.948;11.600;2023-05-15T02:01:25;26.50;;;10.93;;
18881;SDS011;9573;50.948;11.600;2023-05-15T02:03:53;29.93;;;11.87;;
18881;SDS011;9573;50.948;11.600;2023-05-15T02:06:20;28.00;;;11.80;;
18881;SDS011;9573;50.948;11.600;2023-05-15T02:08:48;27.87;;;11.87;;
18881;SDS011;9573;50.948;11.600;2023-05-15T02:11:16;28.80;;;12.63;;
18881;SDS011;9573;50.948;11.600;2023-05-15T02:13:43;29.47;;;12.73;;
18881;SDS011;9573;50.948;11.600;2023-05-15T02:16:12;30.03;;;12.83;;
18881;SDS011;9573;50.948;11.600;2023-05-15T02:18:39;34.43;;;13.63;;
18881;SDS011;9573;50.948;11.600;2023-05-15T02:21:06;30.50;;;12.93;;
18881;SDS011;9573;50.948;11.600;2023-05-15T02:23:34;28.50;;;11.53;;
18881;SDS011;9573;50.948;11.600;2023-05-15T02:26:07;29.10;;;13.20;;
18881;SDS011;9573;50.948;11.600;2023-05-15T02:28:46;35.00;;;12.73;;
18881;SDS011;9573;50.948;11.600;2023-05-15T02:31:30;31.60;;;13.20;;
18881;SDS011;9573;50.948;11.600;2023-05-15T02:34:10;30.50;;;13.00;;
18881;SDS011;9573;50.948;11.600;2023-05-15T02:36:43;33.37;;;13.43;;
18881;SDS011;9573;50.948;11.600;2023-05-15T02:39:14;28.90;;;12.77;;
18881;SDS011;9573;50.948;11.600;2023-05-15T02:41:42;30.10;;;13.17;;
18881;SDS011;9573;50.948;11.600;2023-05-15T02:44:12;30.70;;;13.10;;
18881;SDS011;9573;50.948;11.600;2023-05-15T02:46:41;32.37;;;13.87;;
18881;SDS011;9573;50.948;11.600;2023-05-15T02:49:09;31.30;;;13.30;;
18881;SDS011;9573;50.948;11.600;2023-05-15T02:51:37;40.40;;;13.30;;
18881;SDS011;9573;50.948;11.600;2023-05-15T02:54:05;28.87;;;12.50;;
18881;SDS011;9573;50.948;11.600;2023-05-15T02:56:33;30.33;;;13.30;;
18881;SDS011;9573;50.948;11.600;2023-05-15T02:59:00;29.93;;;12.87;;
18881;SDS011;9573;50.948;11.600;2023-05-15T03:01:27;27.00;;;12.07;;
18881;SDS011;9573;50.948;11.600;2023-05-15T03:03:56;30.07;;;13.30;;
18881;SDS011;9573;50.948;11.600;2023-05-15T03:06:23;29.33;;;13.10;;
18881;SDS011;9573;50.948;11.600;2023-05-15T03:08:50;28.63;;;12.57;;
18881;SDS011;9573;50.948;11.600;2023-05-15T03:11:17;27.43;;;12.53;;
18881;SDS011;9573;50.948;11.600;2023-05-15T03:13:45;30.07;;;13.30;;
18881;SDS011;9573;50.948;11.600;2023-05-15T03:16:12;29.13;;;12.43;;
18881;SDS011;9573;50.948;11.600;2023-05-15T03:18:39;31.43;;;12.00;;
18881;SDS011;9573;50.948;11.600;2023-05-15T03:21:07;28.80;;;12.87;;
18881;SDS011;9573;50.948;11.600;2023-05-15T03:23:35;29.30;;;13.20;;
18881;SDS011;9573;50.948;11.600;2023-05-15T03:26:02;29.87;;;12.00;;
18881;SDS011;9573;50.948;11.600;2023-05-15T03:28:29;31.13;;;12.10;;
18881;SDS011;9573;50.948;11.600;2023-05-15T03:30:56;35.03;;;13.07;;
18881;SDS011;9573;50.948;11.600;2023-05-15T03:33:23;35.53;;;13.03;;
18881;SDS011;9573;50.948;11.600;2023-05-15T03:35:50;35.53;;;12.90;;
18881;SDS011;9573;50.948;11.600;2023-05-15T03:38:19;35.20;;;12.17;;
18881;SDS011;9573;50.948;11.600;2023-05-15T03:40:46;36.80;;;12.30;;
18881;SDS011;9573;50.948;11.600;2023-05-15T03:43:13;43.13;;;12.60;;
18881;SDS011;9573;50.948;11.600;2023-05-15T03:45:40;42.10;;;13.10;;
18881;SDS011;9573;50.948;11.600;2023-05-15T03:48:07;33.23;;;12.87;;
18881;SDS011;9573;50.948;11.600;2023-05-15T03:50:34;30.73;;;12.27;;
18881;SDS011;9573;50.948;11.600;2023-05-15T03:53:03;38.17;;;13.90;;
18881;SDS011;9573;50.948;11.600;2023-05-15T03:55:31;38.03;;;12.60;;
18881;SDS011;9573;50.948;11.600;2023-05-15T03:57:58;32.00;;;12.93;;
18881;SDS011;9573;50.948;11.600;2023-05-15T04:00:26;31.13;;;13.60;;
18881;SDS011;9573;50.948;11.600;2023-05-15T04:02:53;37.87;;;13.40;;
18881;SDS011;9573;50.948;11.600;2023-05-15T04:05:20;41.90;;;12.70;;
18881;SDS011;9573;50.948;11.600;2023-05-15T04:07:48;33.23;;;12.57;;
18881;SDS011;9573;50.948;11.600;2023-05-15T04:10:15;31.27;;;12.20;;
18881;SDS011;9573;50.948;11.600;2023-05-15T04:12:43;39.40;;;13.07;;
18881;SDS011;9573;50.948;11.600;2023-05-15T04:15:12;36.60;;;13.00;;
18881;SDS011;9573;50.948;11.600;2023-05-15T04:17:41;36.50;;;12.83;;
18881;SDS011;9573;50.948;11.600;2023-05-15T04:20:08;40.23;;;13.23;;
18881;SDS011;9573;50.948;11.600;2023-05-15T04:22:37;34.13;;;12.70;;
18881;SDS011;9573;50.948;11.600;2023-05-15T04:25:04;39.63;;;13.37;;
18881;SDS011;9573;50.948;11.600;2023-05-15T04:27:33;30.73;;;12.40;;
18881;SDS011;9573;50.948;11.600;2023-05-15T04:30:01;39.50;;;12.60;;
18881;SDS011;9573;50.948;11.600;2023-05-15T04:32:29;31.30;;;12.67;;
18881;SDS011;9573;50.948;11.600;2023-05-15T04:34:57;36.50;;;12.90;;
18881;SDS011;9573;50.948;11.600;2023-05-15T04:37:25;99.03;;;14.27;;
18881;SDS011;9573;50.948;11.600;2023-05-15T04:39:52;64.30;;;13.27;;
18881;SDS011;9573;50.948;11.600;2023-05-15T04:42:20;48.13;;;12.17;;
18881;SDS011;9573;50.948;11.600;2023-05-15T04:44:47;35.27;;;12.53;;
18881;SDS011;9573;50.948;11.600;2023-05-15T04:47:16;37.07;;;12.67;;
18881;SDS011;9573;50.948;11.600;2023-05-15T04:49:43;28.67;;;12.67;;
18881;SDS011;9573;50.948;11.600;2023-05-15T04:52:12;35.13;;;12.77;;
18881;SDS011;9573;50.948;11.600;2023-05-15T04:54:39;29.30;;;12.17;;
18881;SDS011;9573;50.948;11.600;2023-05-15T04:57:06;26.80;;;11.73;;
18881;SDS011;9573;50.948;11.600;2023-05-15T04:59:33;29.77;;;12.37;;
18881;SDS011;9573;50.948;11.600;2023-05-15T05:02:01;28.30;;;12.43;;
18881;SDS011;9573;50.948;11.600;2023-05-15T05:04:29;28.57;;;12.87;;
18881;SDS011;9573;50.948;11.600;2023-05-15T05:06:56;31.87;;;13.97;;
18881;SDS011;9573;50.948;11.600;2023-05-15T05:09:24;29.67;;;12.13;;
18881;SDS011;9573;50.948;11.600;2023-05-15T05:11:51;30.43;;;12.43;;
18881;SDS011;9573;50.948;11.600;2023-05-15T05:14:18;28.40;;;12.53;;
18881;SDS011;9573;50.948;11.600;2023-05-15T05:16:45;27.53;;;11.93;;
18881;SDS011;9573;50.948;11.600;2023-05-15T05:19:12;25.73;;;11.83;;
18881;SDS011;9573;50.948;11.600;2023-05-15T05:21:41;27.10;;;12.07;;
18881;SDS011;9573;50.948;11.600;2023-05-15T05:24:08;27.47;;;11.37;;
18881;SDS011;9573;50.948;11.600;2023-05-15T05:26:35;27.67;;;12.37;;
18881;SDS011;9573;50.948;11.600;2023-05-15T05:29:02;28.07;;;12.40;;
18881;SDS011;9573;50.948;11.600;2023-05-15T05:31:29;31.10;;;13.07;;
18881;SDS011;9573;50.948;11.600;2023-05-15T05:33:57;27.80;;;11.97;;
18881;SDS011;9573;50.948;11.600;2023-05-15T05:36:24;26.83;;;12.23;;
18881;SDS011;9573;50.948;11.600;2023-05-15T05:38:52;27.10;;;12.07;;
18881;SDS011;9573;50.948;11.600;2023-05-15T05:41:19;26.40;;;11.37;;
18881;SDS011;9573;50.948;11.600;2023-05-15T05:43:47;27.23;;;11.70;;
18881;SDS011;9573;50.948;11.600;2023-05-15T05:46:14;27.47;;;12.40;;
18881;SDS011;9573;50.948;11.600;2023-05-15T05:48:41;30.57;;;13.93;;
18881;SDS011;9573;50.948;11.600;2023-05-15T05:51:08;24.83;;;10.67;;
18881;SDS011;9573;50.948;11.600;2023-05-15T05:53:35;26.33;;;11.87;;
18881;SDS011;9573;50.948;11.600;2023-05-15T05:56:04;25.30;;;11.07;;
18881;SDS011;9573;50.948;11.600;2023-05-15T05:58:32;27.20;;;11.77;;
18881;SDS011;9573;50.948;11.600;2023-05-15T06:00:59;26.23;;;12.10;;
18881;SDS011;9573;50.948;11.600;2023-05-15T06:03:26;23.87;;;10.53;;
18881;SDS011;9573;50.948;11.600;2023-05-15T06:05:54;26.30;;;11.23;;
18881;SDS011;9573;50.948;11.600;2023-05-15T06:08:21;23.43;;;10.50;;
18881;SDS011;9573;50.948;11.600;2023-05-15T06:10:48;23.80;;;10.80;;
18881;SDS011;9573;50.948;11.600;2023-05-15T06:13:16;29.13;;;11.97;;
18881;SDS011;9573;50.948;11.600;2023-05-15T06:15:45;22.50;;;10.10;;
18881;SDS011;9573;50.948;11.600;2023-05-15T06:18:12;19.80;;;9.13;;
18881;SDS011;9573;50.948;11.600;2023-05-15T06:20:39;25.50;;;10.00;;
18881;SDS011;9573;50.948;11.600;2023-05-15T06:23:07;22.97;;;10.20;;
18881;SDS011;9573;50.948;11.600;2023-05-15T06:25:34;19.20;;;8.80;;
18881;SDS011;9573;50.948;11.600;2023-05-15T06:28:02;19.03;;;8.37;;
18881;SDS011;9573;50.948;11.600;2023-05-15T06:30:30;17.93;;;8.60;;
18881;SDS011;9573;50.948;11.600;2023-05-15T06:32:57;20.10;;;9.53;;
18881;SDS011;9573;50.948;11.600;2023-05-15T06:35:25;15.83;;;7.70;;
18881;SDS011;9573;50.948;11.600;2023-05-15T06:37:52;17.27;;;8.20;;
18881;SDS011;9573;50.948;11.600;2023-05-15T06:40:19;17.03;;;8.07;;
18881;SDS011;9573;50.948;11.600;2023-05-15T06:42:46;17.10;;;7.70;;
18881;SDS011;9573;50.948;11.600;2023-05-15T06:45:14;20.00;;;7.87;;
18881;SDS011;9573;50.948;11.600;2023-05-15T06:47:42;18.75;;;9.32;;
18881;SDS011;9573;50.948;11.600;2023-05-15T06:50:09;14.32;;;7.53;;
18881;SDS011;9573;50.948;11.600;2023-05-15T06:52:36;17.45;;;7.68;;
18881;SDS011;9573;50.948;11.600;2023-05-15T06:55:04;14.23;;;7.97;;
18881;SDS011;9573;50.948;11.600;2023-05-15T06:57:32;21.58;;;8.68;;
18881;SDS011;9573;50.948;11.600;2023-05-15T06:59:59;14.82;;;7.63;;
18881;SDS011;9573;50.948;11.600;2023-05-15T07:02:26;17.10;;;7.93;;
18881;SDS011;9573;50.948;11.600;2023-05-15T07:04:54;13.02;;;7.22;;
18881;SDS011;9573;50.948;11.600;2023-05-15T07:07:21;16.63;;;7.47;;
18881;SDS011;9573;50.948;11.600;2023-05-15T07:09:49;17.40;;;7.95;;
18881;SDS011;9573;50.948;11.600;2023-05-15T07:12:16;14.45;;;7.32;;
18881;SDS011;9573;50.948;11.600;2023-05-15T07:14:43;14.88;;;7.47;;
18881;SDS011;9573;50.948;11.600;2023-05-15T07:17:10;16.80;;;7.82;;
18881;SDS011;9573;50.948;11.600;2023-05-15T07:19:37;15.57;;;7.05;;
18881;SDS011;9573;50.948;11.600;2023-05-15T07:22:06;20.65;;;7.97;;
18881;SDS011;9573;50.948;11.600;2023-05-15T07:24:35;15.85;;;7.30;;
18881;SDS011;9573;50.948;11.600;2023-05-15T07:27:04;20.83;;;7.28;;
18881;SDS011;9573;50.948;11.600;2023-05-15T07:29:31;17.17;;;6.90;;
18881;SDS011;9573;50.948;11.600;2023-05-15T07:31:58;12.80;;;6.53;;
18881;SDS011;9573;50.948;11.600;2023-05-15T07:34:25;14.80;;;6.70;;
18881;SDS011;9573;50.948;11.600;2023-05-15T07:36:52;14.07;;;6.60;;
18881;SDS011;9573;50.948;11.600;2023-05-15T07:39:20;10.30;;;6.65;;
18881;SDS011;9573;50.948;11.600;2023-05-15T07:41:48;13.43;;;6.68;;
18881;SDS011;9573;50.948;11.600;2023-05-15T07:44:15;19.13;;;7.30;;
18881;SDS011;9573;50.948;11.600;2023-05-15T07:46:42;19.40;;;6.50;;
18881;SDS011;9573;50.948;11.600;2023-05-15T07:49:10;15.68;;;6.82;;
18881;SDS011;9573;50.948;11.600;2023-05-15T07:51:37;14.73;;;6.78;;
18881;SDS011;9573;50.948;11.600;2023-05-15T07:54:04;14.23;;;6.72;;
18881;SDS011;9573;50.948;11.600;2023-05-15T07:56:33;26.77;;;7.10;;
18881;SDS011;9573;50.948;11.600;2023-05-15T07:59:00;13.00;;;6.55;;
18881;SDS011;9573;50.948;11.600;2023-05-15T08:01:27;12.90;;;6.65;;
18881;SDS011;9573;50.948;11.600;2023-05-15T08:03:54;12.40;;;6.25;;
18881;SDS011;9573;50.948;11.600;2023-05-15T08:06:22;13.52;;;6.47;;
18881;SDS011;9573;50.948;11.600;2023-05-15T08:08:50;13.27;;;6.25;;
18881;SDS011;9573;50.948;11.600;2023-05-15T08:11:17;11.32;;;5.68;;
18881;SDS011;9573;50.948;11.600;2023-05-15T08:13:45;15.93;;;6.15;;
18881;SDS011;9573;50.948;11.600;2023-05-15T08:16:13;11.45;;;5.20;;
18881;SDS011;9573;50.948;11.600;2023-05-15T08:18:40;10.90;;;5.18;;
18881;SDS011;9573;50.948;11.600;2023-05-15T08:21:07;11.20;;;5.43;;
18881;SDS011;9573;50.948;11.600;2023-05-15T08:23:35;12.07;;;5.07;;
18881;SDS011;9573;50.948;11.600;2023-05-15T08:26:02;9.77;;;4.47;;
18881;SDS011;9573;50.948;11.600;2023-05-15T08:28:29;10.95;;;4.70;;
18881;SDS011;9573;50.948;11.600;2023-05-15T08:30:58;14.52;;;4.90;;
18881;SDS011;9573;50.948;11.600;2023-05-15T08:33:25;12.27;;;4.90;;
18881;SDS011;9573;50.948;11.600;2023-05-15T08:35:52;9.68;;;4.45;;
18881;SDS011;9573;50.948;11.600;2023-05-15T08:38:19;10.57;;;4.90;;
18881;SDS011;9573;50.948;11.600;2023-05-15T08:40:46;9.90;;;4.75;;
18881;SDS011;9573;50.948;11.600;2023-05-15T08:43:18;12.40;;;5.15;;
18881;SDS011;9573;50.948;11.600;2023-05-15T08:45:48;10.43;;;5.00;;
18881;SDS011;9573;50.948;11.600;2023-05-15T08:48:16;13.98;;;4.72;;
18881;SDS011;9573;50.948;11.600;2023-05-15T08:50:45;11.88;;;4.65;;
18881;SDS011;9573;50.948;11.600;2023-05-15T08:53:12;11.85;;;4.68;;
18881;SDS011;9573;50.948;11.600;2023-05-15T08:55:40;10.38;;;4.80;;
18881;SDS011;9573;50.948;11.600;2023-05-15T08:58:07;9.45;;;4.47;;
18881;SDS011;9573;50.948;11.600;2023-05-15T09:00:35;12.40;;;4.78;;
18881;SDS011;9573;50.948;11.600;2023-05-15T09:03:03;7.47;;;4.60;;
18881;SDS011;9573;50.948;11.600;2023-05-15T09:05:31;10.02;;;4.55;;
18881;SDS011;9573;50.948;11.600;2023-05-15T09:07:59;10.80;;;4.10;;
18881;SDS011;9573;50.948;11.600;2023-05-15T09:10:31;7.72;;;4.30;;
18881;SDS011;9573;50.948;11.600;2023-05-15T09:13:00;13.20;;;4.90;;
18881;SDS011;9573;50.948;11.600;2023-05-15T09:15:28;11.00;;;4.50;;
18881;SDS011;9573;50.948;11.600;2023-05-15T09:17:56;13.30;;;5.10;;
18881;SDS011;9573;50.948;11.600;2023-05-15T09:20:25;14.35;;;4.85;;
18881;SDS011;9573;50.948;11.600;2023-05-15T09:22:55;12.13;;;4.88;;
18881;SDS011;9573;50.948;11.600;2023-05-15T09:25:33;10.52;;;5.07;;
18881;SDS011;9573;50.948;11.600;2023-05-15T09:28:02;11.85;;;5.20;;
18881;SDS011;9573;50.948;11.600;2023-05-15T09:30:30;11.60;;;4.65;;
18881;SDS011;9573;50.948;11.600;2023-05-15T09:32:59;11.18;;;5.18;;
18881;SDS011;9573;50.948;11.600;2023-05-15T09:35:31;14.43;;;5.30;;
18881;SDS011;9573;50.948;11.600;2023-05-15T09:38:01;12.85;;;5.60;;
18881;SDS011;9573;50.948;11.600;2023-05-15T09:40:33;19.35;;;5.15;;
18881;SDS011;9573;50.948;11.600;2023-05-15T09:43:00;10.70;;;5.05;;
18881;SDS011;9573;50.948;11.600;2023-05-15T09:45:27;9.90;;;4.93;;
18881;SDS011;9573;50.948;11.600;2023-05-15T09:47:55;13.15;;;5.00;;
18881;SDS011;9573;50.948;11.600;2023-05-15T09:50:30;11.27;;;4.45;;
18881;SDS011;9573;50.948;11.600;2023-05-15T09:53:00;11.60;;;4.18;;
18881;SDS011;9573;50.948;11.600;2023-05-15T09:55:30;15.23;;;5.03;;
18881;SDS011;9573;50.948;11.600;2023-05-15T09:58:04;9.88;;;4.25;;
18881;SDS011;9573;50.948;11.600;2023-05-15T10:00:34;9.13;;;4.28;;
18881;SDS011;9573;50.948;11.600;2023-05-15T10:03:02;5.95;;;4.00;;
18881;SDS011;9573;50.948;11.600;2023-05-15T10:05:30;14.15;;;4.40;;
18881;SDS011;9573;50.948;11.600;2023-05-15T10:07:58;11.85;;;4.55;;
18881;SDS011;9573;50.948;11.600;2023-05-15T10:10:28;7.85;;;4.20;;
18881;SDS011;9573;50.948;11.600;2023-05-15T10:12:57;7.68;;;4.13;;
18881;SDS011;9573;50.948;11.600;2023-05-15T10:15:28;8.88;;;3.90;;
18881;SDS011;9573;50.948;11.600;2023-05-15T10:17:56;9.15;;;4.15;;
18881;SDS011;9573;50.948;11.600;2023-05-15T10:20:25;13.48;;;4.40;;
18881;SDS011;9573;50.948;11.600;2023-05-15T10:22:53;10.27;;;4.18;;
18881;SDS011;9573;50.948;11.600;2023-05-15T10:25:26;8.98;;;4.47;;
18881;SDS011;9573;50.948;11.600;2023-05-15T10:28:02;12.57;;;4.32;;
18881;SDS011;9573;50.948;11.600;2023-05-15T10:30:34;8.40;;;4.30;;
18881;SDS011;9573;50.948;11.600;2023-05-15T10:33:02;8.45;;;4.03;;
18881;SDS011;9573;50.948;11.600;2023-05-15T10:35:30;8.85;;;3.90;;
18881;SDS011;9573;50.948;11.600;2023-05-15T10:37:59;9.75;;;4.43;;
18881;SDS011;9573;50.948;11.600;2023-05-15T10:40:30;7.68;;;4.20;;
18881;SDS011;9573;50.948;11.600;2023-05-15T10:42:58;14.00;;;4.50;;
18881;SDS011;9573;50.948;11.600;2023-05-15T10:45:26;9.00;;;4.63;;
18881;SDS011;9573;50.948;11.600;2023-05-15T10:47:55;11.18;;;4.68;;
18881;SDS011;9573;50.948;11.600;2023-05-15T10:50:23;10.85;;;4.65;;
18881;SDS011;9573;50.948;11.600;2023-05-15T10:52:50;11.00;;;4.87;;
18881;SDS011;9573;50.948;11.600;2023-05-15T10:55:17;9.03;;;4.53;;
18881;SDS011;9573;50.948;11.600;2023-05-15T10:57:46;10.07;;;4.70;;
18881;SDS011;9573;50.948;11.600;2023-05-15T11:00:23;9.67;;;4.50;;
18881;SDS011;9573;50.948;11.600;2023-05-15T11:02:51;13.17;;;4.80;;
18881;SDS011;9573;50.948;11.600;2023-05-15T11:05:21;12.10;;;4.40;;
18881;SDS011;9573;50.948;11.600;2023-05-15T11:10:49;9.30;;;4.60;;
18881;SDS011;9573;50.948;11.600;2023-05-15T11:13:18;8.80;;;4.90;;
18881;SDS011;9573;50.948;11.600;2023-05-15T11:15:46;12.70;;;5.00;;
18881;SDS011;9573;50.948;11.600;2023-05-15T11:18:14;9.87;;;4.60;;
18881;SDS011;9573;50.948;11.600;2023-05-15T11:20:42;13.00;;;5.20;;
18881;SDS011;9573;50.948;11.600;2023-05-15T11:23:39;10.87;;;5.00;;
18881;SDS011;9573;50.948;11.600;2023-05-15T11:26:06;17.63;;;5.20;;
18881;SDS011;9573;50.948;11.600;2023-05-15T11:28:41;14.80;;;5.20;;
18881;SDS011;9573;50.948;11.600;2023-05-15T11:31:11;11.10;;;5.30;;
18881;SDS011;9573;50.948;11.600;2023-05-15T11:33:38;10.17;;;4.93;;
18881;SDS011;9573;50.948;11.600;2023-05-15T11:36:06;15.33;;;5.37;;
18881;SDS011;9573;50.948;11.600;2023-05-15T11:38:37;15.83;;;5.90;;
18881;SDS011;9573;50.948;11.600;2023-05-15T11:41:15;12.03;;;5.43;;
18881;SDS011;9573;50.948;11.600;2023-05-15T11:43:47;12.00;;;5.47;;
18881;SDS011;9573;50.948;11.600;2023-05-15T11:46:15;11.83;;;5.30;;
18881;SDS011;9573;50.948;11.600;2023-05-15T11:48:43;11.73;;;5.57;;
18881;SDS011;9573;50.948;11.600;2023-05-15T11:51:17;14.80;;;5.90;;
18881;SDS011;9573;50.948;11.600;2023-05-15T11:53:46;12.70;;;5.50;;
18881;SDS011;9573;50.948;11.600;2023-05-15T11:56:16;14.63;;;5.70;;
18881;SDS011;9573;50.948;11.600;2023-05-15T11:58:47;13.43;;;4.97;;
18881;SDS011;9573;50.948;11.600;2023-05-15T12:01:15;14.50;;;4.97;;
18881;SDS011;9573;50.948;11.600;2023-05-15T12:03:42;16.23;;;5.40;;
18881;SDS011;9573;50.948;11.600;2023-05-15T12:06:13;10.67;;;4.93;;
18881;SDS011;9573;50.948;11.600;2023-05-15T12:08:41;13.67;;;5.47;;
18881;SDS011;9573;50.948;11.600;2023-05-15T12:11:08;13.13;;;5.03;;
18881;SDS011;9573;50.948;11.600;2023-05-15T12:13:36;13.50;;;5.20;;
18881;SDS011;9573;50.948;11.600;2023-05-15T12:16:04;13.07;;;4.70;;
18881;SDS011;9573;50.948;11.600;2023-05-15T12:18:32;13.57;;;4.90;;
18881;SDS011;9573;50.948;11.600;2023-05-15T12:20:59;12.83;;;4.77;;
18881;SDS011;9573;50.948;11.600;2023-05-15T12:23:28;14.63;;;4.93;;
18881;SDS011;9573;50.948;11.600;2023-05-15T12:25:57;14.23;;;5.20;;
18881;SDS011;9573;50.948;11.600;2023-05-15T12:28:27;12.97;;;5.27;;
18881;SDS011;9573;50.948;11.600;2023-05-15T12:30:55;13.97;;;5.10;;
18881;SDS011;9573;50.948;11.600;2023-05-15T12:33:24;13.57;;;5.00;;
18881;SDS011;9573;50.948;11.600;2023-05-15T12:35:52;14.10;;;5.00;;
18881;SDS011;9573;50.948;11.600;2023-05-15T12:38:21;9.13;;;4.90;;
18881;SDS011;9573;50.948;11.600;2023-05-15T12:40:50;12.07;;;4.70;;
18881;SDS011;9573;50.948;11.600;2023-05-15T12:43:18;13.43;;;5.20;;
18881;SDS011;9573;50.948;11.600;2023-05-15T12:45:46;12.57;;;5.17;;
18881;SDS011;9573;50.948;11.600;2023-05-15T12:48:18;11.97;;;5.00;;
18881;SDS011;9573;50.948;11.600;2023-05-15T12:50:47;12.47;;;5.37;;
18881;SDS011;9573;50.948;11.600;2023-05-15T12:53:15;16.37;;;5.50;;
18881;SDS011;9573;50.948;11.600;2023-05-15T12:55:43;14.67;;;5.47;;
18881;SDS011;9573;50.948;11.600;2023-05-15T12:58:12;11.13;;;5.33;;
18881;SDS011;9573;50.948;11.600;2023-05-15T13:00:42;13.93;;;5.00;;
18881;SDS011;9573;50.948;11.600;2023-05-15T13:03:11;13.90;;;5.13;;
18881;SDS011;9573;50.948;11.600;2023-05-15T13:05:40;11.93;;;5.17;;
18881;SDS011;9573;50.948;11.600;2023-05-15T13:08:13;12.93;;;4.50;;
18881;SDS011;9573;50.948;11.600;2023-05-15T13:10:42;19.07;;;4.90;;
18881;SDS011;9573;50.948;11.600;2023-05-15T13:13:10;11.63;;;4.90;;
18881;SDS011;9573;50.948;11.600;2023-05-15T13:15:38;10.17;;;4.50;;
18881;SDS011;9573;50.948;11.600;2023-05-15T13:18:07;12.67;;;4.57;;
18881;SDS011;9573;50.948;11.600;2023-05-15T13:20:41;17.27;;;4.70;;
18881;SDS011;9573;50.948;11.600;2023-05-15T13:23:11;14.80;;;4.93;;
18881;SDS011;9573;50.948;11.600;2023-05-15T13:25:40;15.43;;;5.07;;
18881;SDS011;9573;50.948;11.600;2023-05-15T13:28:07;12.70;;;4.83;;
18881;SDS011;9573;50.948;11.600;2023-05-15T13:30:35;14.83;;;4.83;;
18881;SDS011;9573;50.948;11.600;2023-05-15T13:33:05;12.23;;;5.27;;
18881;SDS011;9573;50.948;11.600;2023-05-15T13:35:33;13.60;;;5.10;;
18881;SDS011;9573;50.948;11.600;2023-05-15T13:38:00;14.23;;;5.20;;
18881;SDS011;9573;50.948;11.600;2023-05-15T13:40:29;15.17;;;5.10;;
18881;SDS011;9573;50.948;11.600;2023-05-15T13:42:59;14.37;;;5.03;;
18881;SDS011;9573;50.948;11.600;2023-05-15T13:45:26;10.63;;;4.30;;
18881;SDS011;9573;50.948;11.600;2023-05-15T13:47:53;10.03;;;4.30;;
18881;SDS011;9573;50.948;11.600;2023-05-15T13:50:21;13.60;;;4.20;;
18881;SDS011;9573;50.948;11.600;2023-05-15T13:52:48;11.93;;;4.50;;
18881;SDS011;9573;50.948;11.600;2023-05-15T13:55:15;16.43;;;4.73;;
18881;SDS011;9573;50.948;11.600;2023-05-15T13:57:44;14.73;;;4.47;;
18881;SDS011;9573;50.948;11.600;2023-05-15T14:00:11;11.83;;;4.90;;
18881;SDS011;9573;50.948;11.600;2023-05-15T14:02:40;15.33;;;4.87;;
18881;SDS011;9573;50.948;11.600;2023-05-15T14:05:09;13.07;;;4.70;;
18881;SDS011;9573;50.948;11.600;2023-05-15T14:07:38;11.23;;;5.00;;
18881;SDS011;9573;50.948;11.600;2023-05-15T14:10:05;16.07;;;5.00;;
18881;SDS011;9573;50.948;11.600;2023-05-15T14:12:34;13.33;;;4.90;;
18881;SDS011;9573;50.948;11.600;2023-05-15T14:15:03;15.07;;;4.80;;
18881;SDS011;9573;50.948;11.600;2023-05-15T14:17:31;11.07;;;4.60;;
18881;SDS011;9573;50.948;11.600;2023-05-15T14:19:59;14.07;;;5.00;;
18881;SDS011;9573;50.948;11.600;2023-05-15T14:22:26;15.03;;;4.83;;
18881;SDS011;9573;50.948;11.600;2023-05-15T14:24:53;13.50;;;4.93;;
18881;SDS011;9573;50.948;11.600;2023-05-15T14:27:20;9.70;;;4.60;;
18881;SDS011;9573;50.948;11.600;2023-05-15T14:29:47;16.53;;;5.70;;
18881;SDS011;9573;50.948;11.600;2023-05-15T14:32:16;14.47;;;4.87;;
18881;SDS011;9573;50.948;11.600;2023-05-15T14:34:43;16.07;;;5.17;;
18881;SDS011;9573;50.948;11.600;2023-05-15T14:37:11;12.73;;;5.00;;
18881;SDS011;9573;50.948;11.600;2023-05-15T14:39:38;16.07;;;4.93;;
18881;SDS011;9573;50.948;11.600;2023-05-15T14:42:05;14.37;;;4.87;;